Time;durP1;ratioP1;P1;durP2;ratioP2;P2;SDS_P1;SDS_P2;PMS_P1;PMS_P2;Temp;Humidity;BMP_temperature;BMP_pressure;BME280_temperature;BME280_humidity;BME280_pressure;Samples;Min_cycle;Max_cycle;Signal;HPM_P1;HPM_P2
2021/03/08 00:01:34;;;;;;;20.43;15.13;;;;;;;2.49;61.29;99692.05;1718144;83;22000;-54
2021/03/08 00:03:59;;;;;;;18.98;16.15;;;;;;;2.49;61.29;99690.69;1717629;83;21026;-54
2021/03/08 00:06:27;;;;;;;18.45;14.53;;;;;;;2.51;61.25;99688.01;1718175;83;21603;-54
2021/03/08 00:08:54;;;;;;;21.68;17.67;;;;;;;2.53;61.23;99686.41;1718042;83;21203;-54
2021/03/08 00:11:25;;;;;;;24.27;16.32;;;;;;;2.53;61.27;99682.34;1717857;83;21648;-54
2021/03/08 00:13:53;;;;;;;17.55;15.30;;;;;;;2.54;61.27;99685.36;1717884;82;21065;-54
2021/03/08 00:16:21;;;;;;;22.35;16.25;;;;;;;2.51;61.32;99681.77;1713059;83;21066;-54
2021/03/08 00:18:53;;;;;;;18.15;15.35;;;;;;;2.52;61.41;99680.72;1704558;84;21007;-54
2021/03/08 00:21:22;;;;;;;21.10;15.88;;;;;;;2.50;61.52;99674.69;1704645;84;21344;-54
2021/03/08 00:23:55;;;;;;;20.55;15.23;;;;;;;2.53;61.38;99670.14;1704257;84;21073;-54
2021/03/08 00:26:29;;;;;;;19.60;14.98;;;;;;;2.54;61.39;99665.02;1704450;84;21011;-54
2021/03/08 00:29:04;;;;;;;18.32;14.98;;;;;;;2.55;61.47;99666.68;1700994;84;22102;-54
2021/03/08 00:31:39;;;;;;;22.17;17.60;;;;;;;2.58;61.30;99656.17;1704509;84;21038;-53
2021/03/08 00:34:06;;;;;;;21.85;16.85;;;;;;;2.58;61.31;99654.81;1704570;84;22223;-53
2021/03/08 00:36:41;;;;;;;23.22;16.65;;;;;;;2.56;61.38;99642.58;1704377;84;21540;-53
2021/03/08 00:39:11;;;;;;;20.27;15.70;;;;;;;2.56;61.41;99641.23;1704329;84;21034;-53
2021/03/08 00:41:43;;;;;;;17.73;14.35;;;;;;;2.57;61.37;99640.14;1704393;84;20991;-53
2021/03/08 00:44:12;;;;;;;21.27;14.38;;;;;;;2.52;61.46;99639.52;1704412;84;21133;-53
2021/03/08 00:46:44;;;;;;;21.68;16.05;;;;;;;2.53;61.52;99644.39;1704177;84;21596;-53
2021/03/08 00:49:20;;;;;;;22.35;16.40;;;;;;;2.53;61.49;99636.26;1704569;84;21668;-54
2021/03/08 00:51:48;;;;;;;17.90;14.40;;;;;;;2.52;61.60;99626.50;1704242;84;21038;-55
2021/03/08 00:54:20;;;;;;;23.65;15.95;;;;;;;2.53;61.74;99630.84;1703925;84;21066;-55
2021/03/08 00:56:52;;;;;;;20.77;15.55;;;;;;;2.51;61.71;99624.30;1704302;84;21632;-55
2021/03/08 00:59:30;;;;;;;19.82;15.85;;;;;;;2.51;61.77;99628.91;1683724;84;21229;-54
2021/03/08 01:01:59;;;;;;;20.23;15.58;;;;;;;2.49;61.85;99616.95;1704334;84;21058;-54
2021/03/08 01:04:28;;;;;;;22.62;17.12;;;;;;;2.50;61.83;99620.48;1704539;84;21014;-54
2021/03/08 01:06:59;;;;;;;21.15;16.55;;;;;;;2.48;61.90;99618.55;1704632;83;21002;-54
2021/03/08 01:09:31;;;;;;;22.30;16.93;;;;;;;2.49;62.01;99622.38;1704981;84;20994;-54
2021/03/08 01:11:59;;;;;;;20.70;15.58;;;;;;;2.46;62.08;99605.24;1704555;82;21230;-54
2021/03/08 01:14:37;;;;;;;19.85;16.55;;;;;;;2.44;62.22;99605.18;1704420;84;21679;-53
2021/03/08 01:17:06;;;;;;;20.77;15.68;;;;;;;2.47;62.30;99613.64;1710542;83;21006;-55
2021/03/08 01:19:40;;;;;;;21.57;16.23;;;;;;;2.47;62.28;99611.47;1718117;83;21176;-53
2021/03/08 01:22:19;;;;;;;22.10;16.77;;;;;;;2.45;62.32;99593.28;1718261;83;20975;-53
2021/03/08 01:24:51;;;;;;;21.97;16.93;;;;;;;2.48;62.34;99599.03;1718070;83;21216;-53
2021/03/08 01:27:19;;;;;;;19.42;14.18;;;;;;;2.50;62.30;99598.79;1717660;83;21686;-53
2021/03/08 01:29:48;;;;;;;20.12;15.23;;;;;;;2.51;62.22;99594.48;1717012;83;21061;-53
2021/03/08 01:32:21;;;;;;;21.30;16.15;;;;;;;2.53;62.26;99595.08;1718366;83;21050;-53
2021/03/08 01:34:52;;;;;;;20.55;16.23;;;;;;;2.52;62.33;99584.48;1718379;83;21057;-53
2021/03/08 01:37:23;;;;;;;21.80;16.00;;;;;;;2.52;62.36;99591.26;1718136;83;21401;-53
2021/03/08 01:39:53;;;;;;;19.07;15.63;;;;;;;2.50;62.37;99585.23;1717639;83;21070;-53
2021/03/08 01:42:22;;;;;;;21.52;16.62;;;;;;;2.49;62.35;99593.10;1717940;83;21046;-53
2021/03/08 01:45:00;;;;;;;22.22;17.15;;;;;;;2.50;62.35;99581.17;1718063;83;21077;-53
2021/03/08 01:47:29;;;;;;;21.93;15.83;;;;;;;2.52;62.34;99583.13;1718462;83;21018;-53
2021/03/08 01:49:58;;;;;;;20.45;15.90;;;;;;;2.53;62.25;99590.17;1717996;83;21207;-53
2021/03/08 01:52:26;;;;;;;23.38;16.50;;;;;;;2.51;62.32;99597.20;1718072;83;21196;-54
2021/03/08 01:54:58;;;;;;;21.00;14.80;;;;;;;2.52;62.41;99591.26;1650769;86;21053;-54
2021/03/08 01:57:28;;;;;;;19.35;15.60;;;;;;;2.46;62.51;99594.91;1718213;83;21066;-53
2021/03/08 01:59:58;;;;;;;19.65;14.68;;;;;;;2.44;62.64;99588.92;1717773;83;21164;-53
2021/03/08 02:02:28;;;;;;;20.80;16.35;;;;;;;2.44;62.78;99609.25;1717709;83;21348;-54
2021/03/08 02:04:56;;;;;;;20.75;16.55;;;;;;;2.39;62.84;99583.69;1717623;83;21010;-53
2021/03/08 02:07:27;;;;;;;21.70;15.35;;;;;;;2.37;62.93;99579.56;1717987;83;21041;-54
2021/03/08 02:09:59;;;;;;;19.00;16.12;;;;;;;2.36;62.98;99577.94;1718065;83;21065;-54
2021/03/08 02:12:50;;;;;;;20.00;15.72;;;;;;;2.38;63.02;99573.09;1717698;82;21038;-53
2021/03/08 02:16:10;;;;;;;23.02;16.30;;;;;;;2.39;63.03;99582.33;1718136;83;21620;-53
2021/03/08 02:19:25;;;;;;;24.37;15.40;;;;;;;2.38;63.05;99576.61;1718084;83;21081;-54
2021/03/08 02:22:33;;;;;;;20.90;16.02;;;;;;;2.37;63.14;99582.27;1717801;83;21010;-54
2021/03/08 02:25:34;;;;;;;17.80;13.83;;;;;;;2.35;63.14;99577.09;1718056;83;21034;-54
2021/03/08 02:28:35;;;;;;;17.67;14.85;;;;;;;2.33;63.26;99581.94;1717703;83;21588;-54
2021/03/08 02:31:11;;;;;;;22.93;16.48;;;;;;;2.32;63.31;99580.83;1718244;83;21313;-54
2021/03/08 02:33:47;;;;;;;22.65;16.05;;;;;;;2.27;63.47;99574.75;1716382;83;21592;-54
2021/03/08 02:36:17;;;;;;;17.75;15.15;;;;;;;2.30;63.43;99574.30;1717486;83;21065;-54
2021/03/08 02:38:50;;;;;;;20.02;15.43;;;;;;;2.29;63.48;99578.06;1718074;83;21042;-53
2021/03/08 02:41:37;;;;;;;23.55;17.37;;;;;;;2.28;63.64;99580.47;1718043;83;21006;-54
2021/03/08 02:44:11;;;;;;;19.10;16.27;;;;;;;2.29;63.57;99576.70;1718125;83;21283;-54
2021/03/08 02:46:42;;;;;;;24.12;18.42;;;;;;;2.29;63.65;99574.00;1691500;83;21010;-54
2021/03/08 02:49:18;;;;;;;22.98;17.98;;;;;;;2.25;63.71;99567.41;1717916;83;21055;-54
2021/03/08 02:52:01;;;;;;;26.07;18.67;;;;;;;2.25;63.80;99570.93;1718125;83;21002;-54
2021/03/08 02:54:39;;;;;;;25.37;19.50;;;;;;;2.22;63.89;99568.70;1718191;83;21180;-54
2021/03/08 02:57:21;;;;;;;26.15;18.92;;;;;;;2.28;64.05;99575.05;1845922;76;22740;-54
2021/03/08 02:59:55;;;;;;;23.75;18.80;;;;;;;2.21;64.10;99560.27;1815882;78;21587;-54
2021/03/08 03:02:26;;;;;;;23.32;17.98;;;;;;;2.24;64.28;99571.17;1814900;79;21802;-54
2021/03/08 03:04:54;;;;;;;25.00;18.62;;;;;;;2.22;64.44;99571.41;1784950;79;21418;-53
2021/03/08 03:07:28;;;;;;;22.35;17.15;;;;;;;2.21;64.77;99567.59;1815929;79;20950;-54
2021/03/08 03:09:56;;;;;;;24.02;17.70;;;;;;;2.20;65.14;99567.29;1784974;79;21615;-56
2021/03/08 03:12:28;;;;;;;23.35;17.80;;;;;;;2.19;65.45;99575.95;1801530;79;21010;-54
2021/03/08 03:15:06;;;;;;;22.55;17.20;;;;;;;2.18;65.74;99572.13;1783401;80;21400;-54
2021/03/08 03:17:39;;;;;;;22.77;17.15;;;;;;;2.16;66.20;99577.80;1783813;80;20997;-54
2021/03/08 03:20:16;;;;;;;25.80;18.80;;;;;;;2.13;66.86;99580.14;1784149;80;21041;-53
2021/03/08 03:22:54;;;;;;;24.90;18.80;;;;;;;2.04;67.07;99580.53;1783947;79;21057;-54
2021/03/08 03:25:24;;;;;;;24.30;16.23;;;;;;;2.06;67.23;99579.75;1783606;80;21005;-55
2021/03/08 03:27:56;;;;;;;21.27;17.98;;;;;;;2.08;67.74;99580.87;1783801;80;21291;-54
2021/03/08 03:30:28;;;;;;;25.62;18.98;;;;;;;2.00;68.01;99583.93;1783590;80;20974;-54
2021/03/08 03:33:02;;;;;;;22.07;17.98;;;;;;;1.93;68.29;99578.66;1783800;80;21002;-53
2021/03/08 03:35:30;;;;;;;28.15;19.17;;;;;;;1.94;68.45;99585.70;1783677;80;21029;-53
2021/03/08 03:38:04;;;;;;;22.80;17.85;;;;;;;1.92;68.71;99579.72;1783849;80;21037;-54
2021/03/08 03:40:35;;;;;;;23.85;17.23;;;;;;;1.90;68.88;99577.24;1783848;79;21376;-53
2021/03/08 03:43:12;;;;;;;27.07;17.65;;;;;;;1.88;69.05;99583.95;1783690;80;21034;-53
2021/03/08 03:45:44;;;;;;;21.57;17.70;;;;;;;1.83;69.36;99581.12;1783705;80;20997;-53
2021/03/08 03:48:17;;;;;;;23.15;17.57;;;;;;;1.80;69.58;99576.18;1783892;79;21579;-53
2021/03/08 03:50:54;;;;;;;24.57;20.45;;;;;;;1.78;69.73;99572.89;1783826;80;21026;-53
2021/03/08 03:53:27;;;;;;;23.22;18.02;;;;;;;1.76;69.93;99572.30;1783536;80;21206;-54
2021/03/08 03:55:57;;;;;;;25.23;18.85;;;;;;;1.77;69.98;99576.66;1783386;79;21029;-54
2021/03/08 03:58:34;;;;;;;26.17;19.40;;;;;;;1.80;69.92;99573.47;1783686;80;21167;-54
2021/03/08 04:01:10;;;;;;;27.65;19.48;;;;;;;1.83;69.77;99551.33;1783511;80;21045;-54
2021/03/08 04:03:56;;;;;;;22.85;17.65;;;;;;;1.83;69.67;99574.34;1783754;80;21045;-53
2021/03/08 04:06:33;;;;;;;21.73;17.35;;;;;;;1.83;69.75;99574.34;1783695;80;21231;-53
2021/03/08 04:09:04;;;;;;;26.00;18.45;;;;;;;1.80;69.79;99578.89;1777472;80;21080;-53
2021/03/08 04:11:36;;;;;;;25.27;18.77;;;;;;;1.78;69.96;99577.77;1783060;79;21013;-53
2021/03/08 04:14:06;;;;;;;22.75;16.97;;;;;;;1.76;70.38;99579.06;1783234;80;21041;-53
2021/03/08 04:16:44;;;;;;;24.50;17.85;;;;;;;1.71;70.91;99587.90;1783131;79;21009;-53
2021/03/08 04:19:17;;;;;;;23.52;19.25;;;;;;;1.66;72.68;99578.33;1783042;80;21359;-53
2021/03/08 04:21:45;;;;;;;25.92;19.15;;;;;;;1.59;73.83;99587.91;1782858;80;21029;-53
2021/03/08 04:24:16;;;;;;;23.22;18.80;;;;;;;1.55;74.36;99584.83;1783123;80;21029;-53
2021/03/08 04:26:45;;;;;;;23.52;17.85;;;;;;;1.53;74.95;99578.84;1783121;80;20986;-53
2021/03/08 04:29:15;;;;;;;25.23;18.42;;;;;;;1.51;75.12;99588.25;1783214;80;21045;-55
2021/03/08 04:31:53;;;;;;;24.55;20.27;;;;;;;1.49;75.04;99583.61;1783201;80;21198;-53
2021/03/08 04:34:21;;;;;;;25.52;18.90;;;;;;;1.42;75.21;99585.06;1755365;80;21041;-53
2021/03/08 04:36:54;;;;;;;23.60;18.32;;;;;;;1.40;75.62;99580.94;1783288;80;21604;-54
2021/03/08 04:39:29;;;;;;;23.92;18.90;;;;;;;1.40;75.69;99580.42;1783552;80;21025;-53
2021/03/08 04:42:05;;;;;;;22.60;18.23;;;;;;;1.46;75.67;99577.28;1783134;80;21069;-53
2021/03/08 04:44:34;;;;;;;22.82;17.00;;;;;;;1.49;75.11;99576.84;1782994;80;21363;-53
2021/03/08 04:47:05;;;;;;;28.62;21.65;;;;;;;1.48;74.51;99580.60;1783051;80;21006;-54
2021/03/08 04:49:36;;;;;;;26.17;21.20;;;;;;;1.46;74.46;99584.05;1783254;80;20950;-54
2021/03/08 04:52:23;;;;;;;26.40;19.52;;;;;;;1.48;74.31;99585.47;1783287;80;21565;-55
2021/03/08 04:54:54;;;;;;;23.07;19.60;;;;;;;1.51;74.19;99580.13;1783349;80;21539;-54
2021/03/08 04:57:22;;;;;;;26.23;19.02;;;;;;;1.52;73.99;99596.66;1793986;79;21200;-54
2021/03/08 04:59:54;;;;;;;26.77;20.23;;;;;;;1.51;73.96;99586.89;1797154;79;21072;-54
2021/03/08 05:02:24;;;;;;;26.35;19.48;;;;;;;1.53;73.72;99590.20;1794632;79;20965;-54
2021/03/08 05:04:54;;;;;;;24.45;19.25;;;;;;;1.55;73.59;99591.59;1797518;79;21020;-54
2021/03/08 05:07:24;;;;;;;23.98;19.12;;;;;;;1.55;73.54;99587.53;1796235;79;21008;-54
2021/03/08 05:09:51;;;;;;;28.32;21.35;;;;;;;1.54;73.39;99589.13;1771335;79;21289;-53
2021/03/08 05:12:22;;;;;;;24.18;19.10;;;;;;;1.55;73.30;99593.48;1797485;78;21080;-53
2021/03/08 05:14:51;;;;;;;27.48;19.62;;;;;;;1.58;73.12;99593.55;1797442;79;21012;-54
2021/03/08 05:17:19;;;;;;;22.32;16.93;;;;;;;1.61;73.00;99600.66;1797748;79;21041;-53
2021/03/08 05:19:49;;;;;;;20.57;15.00;;;;;;;1.64;72.86;99596.13;1778567;80;21553;-54
2021/03/08 05:22:17;;;;;;;21.62;16.12;;;;;;;1.70;72.83;99603.84;1778849;80;21379;-54
2021/03/08 05:24:50;;;;;;;21.95;16.30;;;;;;;1.69;72.69;99609.80;1749601;81;21183;-55
2021/03/08 05:27:19;;;;;;;22.15;17.10;;;;;;;1.70;72.71;99611.45;1772836;80;21345;-55
2021/03/08 05:29:47;;;;;;;21.35;17.35;;;;;;;1.70;72.65;99610.09;1778702;80;21065;-54
2021/03/08 05:32:25;;;;;;;20.82;15.38;;;;;;;1.71;72.61;99613.62;1778779;80;21022;-55
2021/03/08 05:34:53;;;;;;;20.70;17.17;;;;;;;1.71;72.73;99621.20;1779039;80;22278;-55
2021/03/08 05:37:21;;;;;;;21.97;16.42;;;;;;;1.72;72.83;99619.34;1778646;80;21744;-55
2021/03/08 05:39:54;;;;;;;19.25;15.38;;;;;;;1.71;73.14;99625.80;1778762;80;21461;-55
2021/03/08 05:42:29;;;;;;;16.05;12.05;;;;;;;1.64;73.27;99631.31;1778673;80;21022;-54
2021/03/08 05:45:02;;;;;;;14.50;11.43;;;;;;;1.57;72.55;99645.49;1778742;80;20986;-55
2021/03/08 05:48:01;;;;;;;15.70;10.63;;;;;;;1.54;72.19;99648.67;1778875;80;21371;-55
2021/03/08 05:51:12;;;;;;;12.82;10.23;;;;;;;1.48;71.85;99654.48;1779042;80;21034;-54
2021/03/08 05:54:21;;;;;;;13.98;8.73;;;;;;;1.41;71.48;99651.06;1778586;80;21037;-54
2021/03/08 05:57:14;;;;;;;13.28;9.13;;;;;;;1.32;71.61;99668.16;1778874;80;21016;-53
2021/03/08 06:00:06;;;;;;;11.95;8.35;;;;;;;1.29;71.21;99670.52;1778924;80;21049;-54
2021/03/08 06:03:01;;;;;;;12.88;7.28;;;;;;;1.23;70.48;99669.55;1779006;80;21595;-54
2021/03/08 06:06:10;;;;;;;10.05;6.20;;;;;;;1.20;69.64;99668.64;1778823;80;21034;-53
2021/03/08 06:08:53;;;;;;;8.65;6.53;;;;;;;1.19;68.66;99670.53;1749376;80;21631;-53
2021/03/08 06:11:24;;;;;;;7.92;6.20;;;;;;;1.17;68.04;99679.41;1778499;79;21068;-53
2021/03/08 06:14:00;;;;;;;7.90;5.83;;;;;;;1.14;67.19;99673.09;1778436;80;21169;-53
2021/03/08 06:16:33;;;;;;;7.97;5.17;;;;;;;1.11;66.08;99687.61;1778602;80;21210;-55
2021/03/08 06:19:05;;;;;;;6.28;4.78;;;;;;;1.09;66.04;99697.84;1778401;80;21029;-53
2021/03/08 06:21:34;;;;;;;6.03;4.85;;;;;;;1.07;65.74;99697.23;1778739;80;21026;-54
2021/03/08 06:24:07;;;;;;;7.85;4.67;;;;;;;1.07;64.98;99706.70;1778661;80;21616;-53
2021/03/08 06:26:36;;;;;;;6.28;4.25;;;;;;;1.06;64.79;99705.89;1778834;80;21489;-53
2021/03/08 06:29:06;;;;;;;6.55;4.65;;;;;;;1.09;64.88;99706.78;1778541;80;21375;-54
2021/03/08 06:31:38;;;;;;;6.78;4.47;;;;;;;1.13;64.44;99705.27;1755306;80;20987;-53
2021/03/08 06:34:10;;;;;;;6.15;4.28;;;;;;;1.17;64.30;99718.64;1777970;80;21600;-54
2021/03/08 06:36:38;;;;;;;6.62;4.10;;;;;;;1.19;63.37;99719.76;1760272;81;21059;-54
2021/03/08 06:39:10;;;;;;;5.12;4.20;;;;;;;1.19;62.44;99725.98;1778639;80;22123;-54
2021/03/08 06:41:41;;;;;;;4.87;4.10;;;;;;;1.14;62.94;99727.72;1760086;81;21274;-54
2021/03/08 06:44:19;;;;;;;4.80;4.00;;;;;;;1.09;63.28;99730.30;1778434;80;21674;-54
2021/03/08 06:46:47;;;;;;;8.40;5.28;;;;;;;1.07;63.01;99735.09;1760232;81;20992;-54
2021/03/08 06:49:17;;;;;;;7.17;4.67;;;;;;;1.07;63.34;99737.80;1778726;80;21061;-53
2021/03/08 06:52:10;;;;;;;7.65;6.53;;;;;;;1.11;62.89;99732.23;1760014;81;21032;-54
2021/03/08 06:54:44;;;;;;;9.63;5.83;;;;;;;1.15;63.07;99726.67;1778640;80;21301;-54
2021/03/08 06:57:39;;;;;;;8.45;5.03;;;;;;;1.19;63.31;99730.58;1761785;81;21075;-54
2021/03/08 07:00:11;;;;;;;5.70;4.80;;;;;;;1.25;62.77;99731.55;1786488;80;21005;-54
2021/03/08 07:02:44;;;;;;;12.47;4.85;;;;;;;1.28;62.27;99728.38;1786130;80;21037;-54
2021/03/08 07:05:22;;;;;;;8.93;4.20;;;;;;;1.27;61.70;99724.02;1786679;80;20961;-54
2021/03/08 07:08:00;;;;;;;8.20;5.72;;;;;;;1.25;61.48;99728.30;1786804;80;21936;-54
2021/03/08 07:10:43;;;;;;;8.38;5.62;;;;;;;1.24;61.03;99716.36;1786765;80;21040;-54
2021/03/08 07:13:12;;;;;;;9.85;6.03;;;;;;;1.25;61.64;99720.19;1786717;78;21045;-54
2021/03/08 07:16:00;;;;;;;6.53;4.60;;;;;;;1.30;61.79;99723.55;1786561;80;21026;-55
2021/03/08 07:18:31;;;;;;;5.55;4.37;;;;;;;1.40;61.88;99725.70;1786450;80;21001;-54
2021/03/08 07:21:20;;;;;;;6.33;4.17;;;;;;;1.49;61.13;99724.34;1786364;80;22064;-54
2021/03/08 07:23:50;;;;;;;6.10;3.85;;;;;;;1.53;61.23;99726.34;1786296;80;21045;-54
2021/03/08 07:26:20;;;;;;;6.20;4.00;;;;;;;1.64;60.24;99736.08;1786623;80;21167;-54
2021/03/08 07:29:13;;;;;;;7.80;4.37;;;;;;;1.68;59.97;99740.79;1786668;80;21050;-54
2021/03/08 07:31:56;;;;;;;;;;;;;;;1.69;59.04;99737.04;1729385;82;21076;-54
2021/03/08 07:34:29;;;;;;;7.85;3.90;;;;;;;1.58;57.16;99745.13;1719528;83;21219;-53
2021/03/08 07:37:01;;;;;;;5.75;3.87;;;;;;;1.47;57.22;99738.11;1760295;80;21543;-54
2021/03/08 07:39:30;;;;;;;6.47;3.60;;;;;;;1.38;57.70;99746.23;1786765;80;21037;-54
2021/03/08 07:42:05;;;;;;;5.75;3.95;;;;;;;1.29;57.62;99740.86;1786544;80;21356;-54
2021/03/08 07:44:36;;;;;;;5.97;3.87;;;;;;;1.28;58.23;99740.02;1786295;80;21049;-54
2021/03/08 07:47:17;;;;;;;7.92;5.12;;;;;;;1.31;58.53;99742.25;1738404;80;21013;-54
2021/03/08 07:49:51;;;;;;;6.00;4.53;;;;;;;1.30;58.13;99741.98;1786488;80;21623;-54
2021/03/08 07:52:28;;;;;;;8.65;4.70;;;;;;;1.34;58.22;99740.47;1787024;80;21041;-55
2021/03/08 07:55:02;;;;;;;7.87;5.85;;;;;;;1.51;58.75;99741.16;1785796;80;21666;-53
2021/03/08 07:57:30;;;;;;;11.73;7.65;;;;;;;1.70;58.08;99742.76;1783514;80;21635;-55
2021/03/08 08:00:03;;;;;;;30.12;16.73;;;;;;;1.92;57.73;99740.86;1778685;80;21381;-54
2021/03/08 08:02:36;;;;;;;28.07;13.38;;;;;;;2.05;56.94;99742.52;1778192;80;22292;-54
2021/03/08 08:05:11;;;;;;;19.12;6.83;;;;;;;2.22;56.75;99745.37;1779096;80;21061;-54
2021/03/08 08:07:44;;;;;;;12.98;7.62;;;;;;;2.42;56.41;99749.89;1778839;80;21052;-54
2021/03/08 08:10:18;;;;;;;9.93;6.10;;;;;;;2.61;56.37;99747.05;1778690;80;21006;-54
2021/03/08 08:12:58;;;;;;;6.10;4.12;;;;;;;2.74;54.67;99738.69;1778784;79;20997;-54
2021/03/08 08:15:26;;;;;;;5.78;3.75;;;;;;;2.64;53.03;99743.86;1730116;82;21202;-55
2021/03/08 08:17:55;;;;;;;5.55;3.77;;;;;;;2.40;52.80;99734.41;1778927;80;21081;-54
2021/03/08 08:20:23;;;;;;;5.33;3.75;;;;;;;2.29;52.96;99736.59;1760566;81;21586;-55
2021/03/08 08:22:58;;;;;;;7.40;4.25;;;;;;;2.30;52.77;99735.54;1778661;80;21628;-54
2021/03/08 08:25:29;;;;;;;8.85;5.65;;;;;;;2.33;52.66;99736.42;1760045;81;21197;-54
2021/03/08 08:28:00;;;;;;;5.83;3.22;;;;;;;2.30;52.45;99738.25;1778489;80;20990;-54
2021/03/08 08:30:28;;;;;;;12.37;5.83;;;;;;;2.34;50.89;99742.65;1759619;81;21637;-54
2021/03/08 08:32:58;;;;;;;10.75;4.95;;;;;;;2.40;50.62;99741.19;1778459;80;21014;-54
2021/03/08 08:35:32;;;;;;;16.10;5.33;;;;;;;2.63;50.10;99744.10;1759491;81;21059;-54
2021/03/08 08:38:20;;;;;;;4.40;3.20;;;;;;;2.90;49.79;99733.55;1778693;80;21433;-55
2021/03/08 08:40:44;;;;;;;4.80;2.95;;;;;;;3.06;47.65;99749.09;1729469;82;21661;-55
2021/03/08 08:43:19;;;;;;;4.47;3.12;;;;;;;3.00;47.27;99743.80;1778607;80;21025;-55
2021/03/08 08:45:52;;;;;;;5.50;3.62;;;;;;;3.03;47.48;99735.17;1729714;82;21524;-55
2021/03/08 08:48:22;;;;;;;4.75;3.47;;;;;;;3.15;47.94;99737.88;1729991;82;21063;-55
2021/03/08 08:50:52;;;;;;;8.10;3.62;;;;;;;3.46;47.78;99742.81;1778720;80;21148;-55
2021/03/08 08:53:41;;;;;;;6.47;3.80;;;;;;;3.86;47.44;99749.74;1760204;81;21016;-55
2021/03/08 08:56:13;;;;;;;5.22;3.85;;;;;;;4.26;46.27;99752.31;1778546;80;21014;-55
2021/03/08 08:58:45;;;;;;;10.32;4.55;;;;;;;4.57;43.97;99756.84;1721740;82;21040;-55
2021/03/08 09:01:38;;;;;;;23.47;11.30;;;;;;;4.58;43.16;99750.33;1730517;82;21017;-56
2021/03/08 09:04:07;;;;;;;8.08;4.60;;;;;;;4.49;43.45;99747.22;1727541;82;21622;-54
2021/03/08 09:06:55;;;;;;;30.02;17.95;;;;;;;4.26;42.55;99741.45;1783119;80;21132;-54
2021/03/08 09:09:40;;;;;;;7.08;4.10;;;;;;;3.93;42.83;99758.55;1783307;80;21033;-54
2021/03/08 09:12:14;;;;;;;17.98;7.67;;;;;;;3.93;41.67;99750.41;1779910;79;21069;-54
2021/03/08 09:14:51;;;;;;;9.98;5.72;;;;;;;4.03;41.73;99749.23;1782992;80;21319;-54
2021/03/08 09:17:43;;;;;;;16.50;9.63;;;;;;;4.05;41.33;99749.80;1783280;80;21363;-54
2021/03/08 09:20:18;;;;;;;8.78;5.75;;;;;;;3.86;41.34;99760.09;1783111;80;21025;-55
2021/03/08 09:22:51;;;;;;;7.83;5.72;;;;;;;3.60;42.04;99760.15;1783257;80;21563;-53
2021/03/08 09:25:30;;;;;;;7.42;5.28;;;;;;;3.63;41.08;99765.13;1783450;80;21034;-54
2021/03/08 09:28:03;;;;;;;5.90;3.37;;;;;;;3.88;40.21;99762.56;1783195;80;21022;-54
2021/03/08 09:30:38;;;;;;;6.85;3.42;;;;;;;4.32;39.70;99762.73;1783352;80;21203;-56
2021/03/08 09:33:21;;;;;;;5.92;4.35;;;;;;;4.69;39.48;99759.47;1783339;80;21052;-56
2021/03/08 09:35:54;;;;;;;7.40;3.35;;;;;;;4.80;39.22;99768.06;1782142;80;21029;-55
2021/03/08 09:38:24;;;;;;;5.80;2.98;;;;;;;4.86;39.27;99766.23;1783213;80;21050;-55
2021/03/08 09:41:00;;;;;;;4.78;3.15;;;;;;;5.12;38.37;99766.02;1782987;80;21020;-56
2021/03/08 09:43:33;;;;;;;5.97;3.30;;;;;;;5.51;38.10;99778.17;1783045;80;22367;-54
2021/03/08 09:46:11;;;;;;;6.08;3.08;;;;;;;5.51;37.48;99782.25;1783148;80;21076;-55
2021/03/08 09:49:05;;;;;;;6.58;3.33;;;;;;;5.73;37.02;99775.97;1888089;75;23425;-55
2021/03/08 09:51:34;;;;;;;6.80;3.83;;;;;;;5.91;36.25;99766.58;1893975;75;21002;-55
2021/03/08 09:54:02;;;;;;;4.42;2.65;;;;;;;6.28;35.78;99767.75;1772168;79;21290;-56
2021/03/08 09:56:29;;;;;;;4.03;2.40;;;;;;;6.56;33.18;99763.31;1850915;77;20974;-56
2021/03/08 09:59:05;;;;;;;3.77;2.40;;;;;;;6.55;33.73;99767.11;1820967;78;21647;-55
2021/03/08 10:01:36;;;;;;;7.42;2.27;;;;;;;6.31;33.22;99758.48;1851608;76;21037;-56
2021/03/08 10:04:05;;;;;;;5.20;2.90;;;;;;;6.17;33.74;99767.67;1819359;78;21532;-54
2021/03/08 10:06:34;;;;;;;4.83;2.83;;;;;;;6.04;34.15;99764.00;1848264;76;21215;-55
2021/03/08 10:09:25;;;;;;;5.40;3.22;;;;;;;6.04;34.45;99762.63;1822444;78;21636;-55
2021/03/08 10:12:02;;;;;;;10.88;3.47;;;;;;;5.79;34.96;99766.75;1818628;77;21009;-55
2021/03/08 10:14:30;;;;;;;10.85;5.15;;;;;;;5.52;34.80;99766.75;1822298;78;21611;-55
2021/03/08 10:17:10;;;;;;;24.00;10.50;;;;;;;5.33;35.01;99763.52;1844621;77;20955;-55
2021/03/08 10:19:59;;;;;;;10.00;5.83;;;;;;;5.15;35.24;99773.67;1828561;78;21029;-55
2021/03/08 10:22:39;;;;;;;10.98;4.97;;;;;;;4.98;35.74;99772.36;1853910;77;21061;-54
2021/03/08 10:25:30;;;;;;;6.25;3.70;;;;;;;5.03;35.92;99772.99;1845389;77;21018;-55
2021/03/08 10:28:04;;;;;;;10.38;3.80;;;;;;;5.18;34.75;99761.45;1829185;78;21025;-55
2021/03/08 10:30:33;;;;;;;6.03;2.83;;;;;;;5.27;35.28;99772.20;1848923;77;21006;-55
2021/03/08 10:33:11;;;;;;;6.40;3.98;;;;;;;5.22;35.04;99772.67;1856032;77;22254;-54
2021/03/08 10:35:52;;;;;;;10.70;5.10;;;;;;;5.07;36.29;99759.13;1819495;77;21037;-54
2021/03/08 10:38:34;;;;;;;9.43;4.55;;;;;;;5.03;36.13;99760.74;1828154;78;21025;-56
2021/03/08 10:41:09;;;;;;;8.10;4.25;;;;;;;5.16;35.66;99754.91;1854294;77;22173;-55
2021/03/08 10:43:41;;;;;;;10.20;3.67;;;;;;;5.19;34.70;99756.30;1845111;77;21037;-55
2021/03/08 10:46:10;;;;;;;15.20;6.00;;;;;;;5.50;35.25;99745.22;1788651;79;22172;-55
2021/03/08 10:48:58;;;;;;;12.73;4.92;;;;;;;5.78;34.73;99747.38;1858187;77;21002;-55
2021/03/08 10:51:32;;;;;;;11.15;3.83;;;;;;;6.02;34.11;99744.37;1809135;78;26982;-53
2021/03/08 10:54:07;;;;;;;10.95;5.25;;;;;;;6.02;34.45;99747.91;1819603;78;21598;-55
2021/03/08 10:56:43;;;;;;;8.43;5.08;;;;;;;6.01;34.21;99746.80;1810131;78;21026;-55
2021/03/08 10:59:30;;;;;;;8.75;4.20;;;;;;;6.29;33.10;99738.00;1848973;77;22109;-55
2021/03/08 11:02:09;;;;;;;4.05;2.42;;;;;;;6.42;32.37;99745.76;1848228;77;21062;-55
2021/03/08 11:04:42;;;;;;;4.83;2.10;;;;;;;6.28;31.74;99747.30;1805394;78;21080;-56
2021/03/08 11:07:09;;;;;;;5.05;3.33;;;;;;;6.29;32.14;99755.73;1804521;78;21617;-53
2021/03/08 11:09:46;;;;;;;6.75;3.20;;;;;;;6.36;31.76;99763.18;1847017;77;20988;-54
2021/03/08 11:12:20;;;;;;;3.60;2.33;;;;;;;6.03;31.98;99753.65;1847454;77;21360;-54
2021/03/08 11:14:54;;;;;;;3.95;2.55;;;;;;;5.59;32.46;99752.91;1827712;78;21045;-55
2021/03/08 11:17:36;;;;;;;11.22;3.22;;;;;;;5.23;33.10;99756.60;1853451;77;20997;-55
2021/03/08 11:20:15;;;;;;;5.75;3.00;;;;;;;4.92;33.45;99757.60;1852333;77;21061;-54
2021/03/08 11:23:01;;;;;;;7.22;3.30;;;;;;;4.65;34.04;99752.34;1843110;77;20993;-55
2021/03/08 11:25:40;;;;;;;7.70;3.60;;;;;;;4.48;34.95;99756.44;1822256;78;21353;-54
2021/03/08 11:28:14;;;;;;;5.55;3.80;;;;;;;4.26;35.08;99748.78;1852241;77;21596;-55
2021/03/08 11:30:50;;;;;;;9.78;7.10;;;;;;;4.14;35.25;99749.70;1848796;77;21046;-55
2021/03/08 11:33:25;;;;;;;18.42;8.18;;;;;;;4.05;35.61;99750.34;1820717;78;21097;-55
2021/03/08 11:35:58;;;;;;;38.58;23.32;;;;;;;3.92;36.11;99757.74;1860428;77;21017;-55
2021/03/08 11:38:26;;;;;;;26.55;17.90;;;;;;;3.84;36.83;99761.40;1853669;77;21136;-55
2021/03/08 11:41:00;;;;;;;12.63;9.68;;;;;;;3.79;37.26;99758.06;1849440;77;21550;-54
2021/03/08 11:43:32;;;;;;;9.25;7.28;;;;;;;3.70;37.77;99754.09;1849551;77;20974;-54
2021/03/08 11:46:06;;;;;;;5.72;3.75;;;;;;;3.62;38.04;99778.40;1857359;77;20966;-55
2021/03/08 11:48:38;;;;;;;7.95;3.95;;;;;;;3.50;38.95;99780.33;1848357;77;21180;-55
2021/03/08 11:51:11;;;;;;;6.62;3.37;;;;;;;3.33;40.26;99791.97;1828294;78;21365;-55
2021/03/08 11:53:43;;;;;;;5.40;3.65;;;;;;;3.22;41.47;99777.91;1852123;77;21004;-53
2021/03/08 11:56:25;;;;;;;4.92;3.12;;;;;;;3.10;41.82;99790.13;1839780;77;21130;-54
2021/03/08 11:58:49;;;;;;;5.33;3.35;;;;;;;2.93;41.98;99777.86;1816690;78;21006;-53
2021/03/08 12:01:16;;;;;;;5.90;3.98;;;;;;;2.94;41.84;99776.78;1846891;77;21067;-53
2021/03/08 12:03:49;;;;;;;6.08;3.58;;;;;;;2.94;41.87;99787.63;1854271;77;21197;-53
2021/03/08 12:06:17;;;;;;;4.92;3.30;;;;;;;2.86;41.95;99777.98;1851853;77;21029;-55
2021/03/08 12:08:46;;;;;;;7.15;5.42;;;;;;;2.87;42.14;99793.71;1827412;78;21033;-54